Time;durP1;ratioP1;P1;durP2;ratioP2;P2;SDS_P1;SDS_P2;PMS_P1;PMS_P2;Temp;Humidity;BMP_temperature;BMP_pressure;BME280_temperature;BME280_humidity;BME280_pressure;Samples;Min_cycle;Max_cycle;Signal;HPM_P1;HPM_P2
2023/08/11 00:02:00;;;;;;;;;;;21.40;63.80;;;;;;10213241;28;89876;-63
2023/08/11 00:07:03;;;;;;;;;;;21.30;63.80;;;;;;10230292;28;89270;-63
2023/08/11 00:12:06;;;;;;;;;;;21.40;63.90;;;;;;10208970;28;89947;-63
2023/08/11 00:17:08;;;;;;;;;;;21.40;63.90;;;;;;10227515;28;89353;-63
2023/08/11 00:22:11;;;;;;;;;;;21.30;63.90;;;;;;10224297;28;90307;-66
2023/08/11 00:27:13;;;;;;;;;;;21.30;63.90;;;;;;10228858;28;90150;-64
2023/08/11 00:32:16;;;;;;;;;;;21.30;63.90;;;;;;10222505;28;89729;-63
2023/08/11 00:37:20;;;;;;;;;;;21.30;63.90;;;;;;10213592;28;90967;-62
2023/08/11 00:42:25;;;;;;;;;;;21.30;63.90;;;;;;10207607;28;89519;-63
2023/08/11 00:47:29;;;;;;;;;;;21.30;63.90;;;;;;10222396;28;89437;-63
2023/08/11 00:52:31;;;;;;;;;;;21.30;64.00;;;;;;10216034;28;89579;-63
2023/08/11 00:57:34;;;;;;;;;;;21.30;63.90;;;;;;10208273;28;88919;-65
2023/08/11 01:02:41;;;;;;;;;;;21.30;64.00;;;;;;10218374;28;89992;-63
2023/08/11 01:07:47;;;;;;;;;;;21.30;64.00;;;;;;10238817;28;88700;-63
2023/08/11 01:13:03;;;;;;;;;;;21.30;64.00;;;;;;10228494;28;89835;-63
2023/08/11 01:18:05;;;;;;;;;;;21.30;64.00;;;;;;10233320;28;89525;-63
2023/08/11 01:23:19;;;;;;;;;;;21.20;64.00;;;;;;10221706;28;90331;-64
2023/08/11 01:28:23;;;;;;;;;;;21.20;64.00;;;;;;10200638;28;89521;-64
2023/08/11 01:33:25;;;;;;;;;;;21.20;64.10;;;;;;10200651;28;89258;-64
2023/08/11 01:38:27;;;;;;;;;;;21.20;64.10;;;;;;10221792;28;90092;-60
2023/08/11 01:43:29;;;;;;;;;;;21.20;64.10;;;;;;10217830;28;89158;-64
2023/08/11 01:48:33;;;;;;;;;;;21.30;64.10;;;;;;10214180;28;89297;-64
2023/08/11 01:53:36;;;;;;;;;;;21.20;64.10;;;;;;10210179;28;91479;-61
2023/08/11 01:58:38;;;;;;;;;;;21.20;64.10;;;;;;10219164;28;88670;-60
2023/08/11 02:03:40;;;;;;;;;;;21.30;64.10;;;;;;10232630;28;89075;-60
2023/08/11 02:08:46;;;;;;;;;;;21.30;64.10;;;;;;10192462;28;89784;-60
2023/08/11 02:13:48;;;;;;;;;;;21.20;64.10;;;;;;10224850;28;92476;-60
2023/08/11 02:18:51;;;;;;;;;;;21.30;64.10;;;;;;10217114;28;89489;-62
2023/08/11 02:23:54;;;;;;;;;;;21.30;64.00;;;;;;10187594;28;90271;-64
2023/08/11 02:28:58;;;;;;;;;;;21.30;64.00;;;;;;10205805;28;89137;-65
2023/08/11 02:34:00;;;;;;;;;;;21.30;64.00;;;;;;10202271;28;91148;-63
2023/08/11 02:39:08;;;;;;;;;;;21.30;63.90;;;;;;10223817;28;89057;-63
2023/08/11 02:44:14;;;;;;;;;;;21.30;63.90;;;;;;10208798;28;89202;-64
2023/08/11 02:49:16;;;;;;;;;;;21.30;63.90;;;;;;10222232;28;89251;-64
2023/08/11 02:54:18;;;;;;;;;;;21.30;63.80;;;;;;10218986;28;89337;-64
2023/08/11 02:59:21;;;;;;;;;;;21.30;63.80;;;;;;10220685;28;89043;-64
2023/08/11 03:04:25;;;;;;;;;;;21.30;63.80;;;;;;10189145;28;89718;-63
2023/08/11 03:09:27;;;;;;;;;;;21.30;63.80;;;;;;10211336;28;90339;-65
2023/08/11 03:14:30;;;;;;;;;;;21.30;63.70;;;;;;10202025;28;91381;-64
2023/08/11 03:19:32;;;;;;;;;;;21.30;63.70;;;;;;10208768;28;88802;-64
2023/08/11 03:24:34;;;;;;;;;;;21.30;63.60;;;;;;10215179;28;90377;-63
2023/08/11 03:29:36;;;;;;;;;;;21.30;63.60;;;;;;10211036;28;90093;-63
2023/08/11 03:34:38;;;;;;;;;;;21.40;63.50;;;;;;10215220;28;90018;-64
2023/08/11 03:39:39;;;;;;;;;;;21.40;63.50;;;;;;10230940;28;88876;-63
2023/08/11 03:44:41;;;;;;;;;;;21.40;63.50;;;;;;10227520;28;89665;-64
2023/08/11 03:49:46;;;;;;;;;;;21.40;63.50;;;;;;10231163;28;89452;-64
2023/08/11 03:54:48;;;;;;;;;;;21.40;63.40;;;;;;10207756;28;90244;-63
2023/08/11 03:59:54;;;;;;;;;;;21.30;63.40;;;;;;10228156;28;89524;-62
2023/08/11 04:04:57;;;;;;;;;;;21.30;63.40;;;;;;10199429;28;90656;-63
2023/08/11 04:09:59;;;;;;;;;;;21.40;63.40;;;;;;10222371;28;89257;-64
2023/08/11 04:15:05;;;;;;;;;;;21.30;63.60;;;;;;10199101;28;89059;-63
2023/08/11 04:20:13;;;;;;;;;;;21.30;63.40;;;;;;10216559;28;89095;-66
2023/08/11 04:25:19;;;;;;;;;;;21.30;63.30;;;;;;10213158;28;89650;-63
2023/08/11 04:30:23;;;;;;;;;;;21.30;63.40;;;;;;10210578;28;89345;-63
2023/08/11 04:35:26;;;;;;;;;;;21.30;63.30;;;;;;10209555;28;89989;-64
2023/08/11 04:40:30;;;;;;;;;;;21.30;63.40;;;;;;10214195;28;90588;-64
2023/08/11 04:50:54;;;;;;;;;;;21.30;64.40;;;;;;10464406;22;91152;-66
2023/08/11 04:55:56;;;;;;;;;;;21.30;63.40;;;;;;10136307;28;90602;-65
2023/08/11 05:01:03;;;;;;;;;;;21.20;63.30;;;;;;10139106;28;88673;-65
2023/08/11 05:06:06;;;;;;;;;;;21.20;64.30;;;;;;10159324;28;88787;-65
2023/08/11 05:11:08;;;;;;;;;;;21.20;63.40;;;;;;10149034;28;89245;-66
2023/08/11 05:16:10;;;;;;;;;;;21.20;63.50;;;;;;10134156;28;89105;-65
2023/08/11 05:21:15;;;;;;;;;;;21.20;63.40;;;;;;10133445;28;89365;-65
2023/08/11 05:26:19;;;;;;;;;;;21.20;63.50;;;;;;10158300;28;89279;-65
2023/08/11 05:31:24;;;;;;;;;;;21.20;63.60;;;;;;10127027;28;89343;-65
2023/08/11 05:36:29;;;;;;;;;;;21.20;64.60;;;;;;10134335;28;89932;-65
2023/08/11 05:41:33;;;;;;;;;;;21.20;63.60;;;;;;10100579;28;89981;-65
2023/08/11 05:46:38;;;;;;;;;;;21.20;63.60;;;;;;10115769;28;89612;-65
2023/08/11 05:51:42;;;;;;;;;;;21.20;63.70;;;;;;10127722;28;89453;-65
2023/08/11 05:56:43;;;;;;;;;;;21.10;63.60;;;;;;10151314;28;89134;-65
2023/08/11 06:01:47;;;;;;;;;;;21.10;63.70;;;;;;10128214;28;89635;-65
2023/08/11 06:06:51;;;;;;;;;;;21.10;63.80;;;;;;10090811;28;89470;-65
2023/08/11 06:11:53;;;;;;;;;;;21.10;63.80;;;;;;10125778;28;88568;-65
2023/08/11 06:16:56;;;;;;;;;;;21.10;63.90;;;;;;10143720;28;89442;-66
2023/08/11 06:21:59;;;;;;;;;;;21.10;63.80;;;;;;10132415;28;90975;-65
2023/08/11 06:27:02;;;;;;;;;;;21.10;64.10;;;;;;10127516;28;89593;-64
2023/08/11 06:32:05;;;;;;;;;;;21.10;64.20;;;;;;10127623;28;89492;-66
2023/08/11 06:37:07;;;;;;;;;;;21.00;64.20;;;;;;10125271;28;90615;-66
2023/08/11 06:42:10;;;;;;;;;;;21.10;64.30;;;;;;10150626;28;90561;-66
2023/08/11 06:47:13;;;;;;;;;;;21.10;64.50;;;;;;10149991;28;89409;-65
2023/08/11 06:52:16;;;;;;;;;;;21.10;64.50;;;;;;10108788;28;89492;-66
2023/08/11 06:57:20;;;;;;;;;;;21.10;64.50;;;;;;10129403;28;89571;-65
2023/08/11 07:02:24;;;;;;;;;;;21.10;64.40;;;;;;10117730;28;89448;-66
2023/08/11 07:07:28;;;;;;;;;;;21.20;64.40;;;;;;10132824;28;90422;-67
2023/08/11 07:12:31;;;;;;;;;;;21.20;64.30;;;;;;10134108;28;89300;-66
2023/08/11 07:17:36;;;;;;;;;;;21.20;64.20;;;;;;10116030;28;90567;-65
2023/08/11 07:22:39;;;;;;;;;;;21.20;64.30;;;;;;10115305;28;89699;-66
2023/08/11 07:27:40;;;;;;;;;;;21.20;64.10;;;;;;10123159;28;90014;-65
2023/08/11 07:32:42;;;;;;;;;;;21.20;64.00;;;;;;10126328;28;90604;-66
2023/08/11 07:37:45;;;;;;;;;;;21.30;64.00;;;;;;10127651;28;89868;-65
2023/08/11 07:42:48;;;;;;;;;;;21.20;64.00;;;;;;10126398;28;89534;-65
2023/08/11 07:47:52;;;;;;;;;;;21.30;64.10;;;;;;10118252;28;90575;-65
2023/08/11 07:52:54;;;;;;;;;;;21.30;64.10;;;;;;10154385;28;91001;-66
2023/08/11 07:57:56;;;;;;;;;;;21.30;64.00;;;;;;10144414;28;90310;-66
2023/08/11 08:03:00;;;;;;;;;;;21.30;63.90;;;;;;10152867;28;89565;-66
2023/08/11 08:08:05;;;;;;;;;;;21.30;64.00;;;;;;10137590;28;89988;-66
2023/08/11 08:13:09;;;;;;;;;;;21.30;64.00;;;;;;10122146;28;89214;-66
2023/08/11 08:18:13;;;;;;;;;;;21.40;64.00;;;;;;10125663;28;89158;-66
2023/08/11 08:23:17;;;;;;;;;;;21.40;64.00;;;;;;10135284;28;89020;-65
2023/08/11 08:28:21;;;;;;;;;;;21.40;64.00;;;;;;10156825;28;89906;-67
2023/08/11 08:33:24;;;;;;;;;;;21.40;64.00;;;;;;10118877;28;89496;-66
2023/08/11 08:38:26;;;;;;;;;;;21.40;63.90;;;;;;10128092;28;89687;-66
2023/08/11 08:43:28;;;;;;;;;;;21.40;63.90;;;;;;10151902;28;88588;-66
2023/08/11 08:48:33;;;;;;;;;;;21.40;65.00;;;;;;10134618;28;90052;-66
2023/08/11 08:53:35;;;;;;;;;;;21.40;64.00;;;;;;10152194;28;90279;-66
2023/08/11 08:58:38;;;;;;;;;;;21.30;64.00;;;;;;10158761;28;90014;-66
2023/08/11 09:03:44;;;;;;;;;;;21.30;64.00;;;;;;10146938;28;89621;-65
2023/08/11 09:08:46;;;;;;;;;;;21.40;64.10;;;;;;10137169;28;89362;-66
2023/08/11 09:13:49;;;;;;;;;;;21.30;64.00;;;;;;10143558;28;89076;-66
2023/08/11 09:18:52;;;;;;;;;;;21.30;64.00;;;;;;10138764;28;89848;-66
2023/08/11 09:23:56;;;;;;;;;;;21.40;64.10;;;;;;10125336;28;89856;-66
2023/08/11 09:28:59;;;;;;;;;;;21.40;64.10;;;;;;10125373;28;89949;-66
2023/08/11 09:34:09;;;;;;;;;;;21.40;64.10;;;;;;10133986;28;89690;-65
2023/08/11 09:39:13;;;;;;;;;;;21.40;64.00;;;;;;10143343;28;90086;-65
2023/08/11 09:44:18;;;;;;;;;;;21.40;64.00;;;;;;10127202;28;89957;-66
2023/08/11 09:49:21;;;;;;;;;;;21.50;63.90;;;;;;10111643;28;90675;-65
2023/08/11 09:54:23;;;;;;;;;;;21.50;63.70;;;;;;10127518;28;90086;-66
2023/08/11 09:59:25;;;;;;;;;;;21.60;63.60;;;;;;10132022;28;89764;-65
2023/08/11 10:04:42;;;;;;;;;;;21.70;63.60;;;;;;10115673;28;89839;-65
2023/08/11 10:09:48;;;;;;;;;;;21.80;63.40;;;;;;10116962;28;90211;-66
2023/08/11 10:14:51;;;;;;;;;;;21.80;63.20;;;;;;10145084;28;89356;-65
2023/08/11 10:19:54;;;;;;;;;;;21.90;63.10;;;;;;10126436;28;89994;-65
2023/08/11 10:24:56;;;;;;;;;;;22.00;63.10;;;;;;10151005;28;88730;-66
2023/08/11 10:30:00;;;;;;;;;;;22.00;62.90;;;;;;10140780;28;89585;-65
2023/08/11 10:35:19;;;;;;;;;;;22.00;62.90;;;;;;10137880;28;89708;-64
2023/08/11 10:40:21;;;;;;;;;;;22.10;63.00;;;;;;10153827;28;91068;-65
2023/08/11 10:45:24;;;;;;;;;;;22.10;62.90;;;;;;10168006;28;89348;-66
2023/08/11 10:50:32;;;;;;;;;;;22.10;63.00;;;;;;10142424;28;108761;-64
2023/08/11 10:55:39;;;;;;;;;;;22.10;63.00;;;;;;10169110;28;89724;-66
2023/08/11 11:00:42;;;;;;;;;;;22.10;63.10;;;;;;10124673;28;93688;-65
2023/08/11 11:05:46;;;;;;;;;;;22.20;63.20;;;;;;10109522;28;89675;-65
2023/08/11 11:10:49;;;;;;;;;;;22.10;63.10;;;;;;10145074;28;89611;-66
2023/08/11 11:15:51;;;;;;;;;;;22.10;63.30;;;;;;10145461;28;89379;-66
2023/08/11 11:20:54;;;;;;;;;;;22.20;63.40;;;;;;10136218;28;89146;-63
2023/08/11 11:25:56;;;;;;;;;;;22.20;63.40;;;;;;10129233;28;90619;-66
2023/08/11 11:30:58;;;;;;;;;;;22.20;63.40;;;;;;10136611;28;89899;-66
2023/08/11 11:36:00;;;;;;;;;;;22.10;63.50;;;;;;10141837;28;89594;-66
2023/08/11 11:41:02;;;;;;;;;;;22.20;63.60;;;;;;10128663;28;89970;-66
2023/08/11 11:46:11;;;;;;;;;;;22.20;63.60;;;;;;10118523;28;89022;-66
2023/08/11 11:51:14;;;;;;;;;;;22.20;63.70;;;;;;10124710;28;89857;-64
2023/08/11 11:56:17;;;;;;;;;;;22.20;63.80;;;;;;10140848;28;89072;-66
2023/08/11 12:01:21;;;;;;;;;;;22.10;63.90;;;;;;10142382;28;89779;-66
2023/08/11 12:06:26;;;;;;;;;;;22.20;63.90;;;;;;10134172;28;89467;-66
2023/08/11 12:11:33;;;;;;;;;;;22.10;64.00;;;;;;10160344;28;90315;-66
2023/08/11 12:16:38;;;;;;;;;;;22.10;64.10;;;;;;10120354;28;89089;-68
2023/08/11 12:21:42;;;;;;;;;;;22.20;64.20;;;;;;10128737;28;89882;-65
2023/08/11 12:26:43;;;;;;;;;;;22.20;64.30;;;;;;10134639;28;89172;-66
2023/08/11 12:31:45;;;;;;;;;;;22.20;65.30;;;;;;10147214;28;91794;-66
2023/08/11 12:36:49;;;;;;;;;;;22.20;64.40;;;;;;10170099;28;89504;-66
2023/08/11 12:41:51;;;;;;;;;;;22.20;64.40;;;;;;10168972;28;90011;-66
2023/08/11 12:46:53;;;;;;;;;;;22.20;64.40;;;;;;10138273;28;89905;-67
2023/08/11 12:51:55;;;;;;;;;;;22.20;64.40;;;;;;10144709;28;89970;-65
2023/08/11 12:56:57;;;;;;;;;;;22.20;64.40;;;;;;10143565;28;89015;-66
2023/08/11 13:02:01;;;;;;;;;;;22.30;64.40;;;;;;10136243;28;88892;-65
2023/08/11 13:07:03;;;;;;;;;;;22.30;64.40;;;;;;10114788;28;89666;-66
2023/08/11 13:12:11;;;;;;;;;;;22.30;64.40;;;;;;10130877;28;90171;-66
2023/08/11 13:17:13;;;;;;;;;;;22.30;64.40;;;;;;10130440;28;90545;-64
2023/08/11 13:22:15;;;;;;;;;;;22.30;64.40;;;;;;10137801;28;89666;-65
2023/08/11 13:27:18;;;;;;;;;;;22.30;64.50;;;;;;10115409;28;89502;-65
2023/08/11 13:32:20;;;;;;;;;;;22.30;64.50;;;;;;10118669;28;88854;-64
2023/08/11 13:37:22;;;;;;;;;;;22.30;64.60;;;;;;10119176;28;89581;-65
2023/08/11 13:42:25;;;;;;;;;;;22.30;64.70;;;;;;10133477;28;89902;-65
2023/08/11 13:47:28;;;;;;;;;;;22.30;64.80;;;;;;10137155;28;90116;-64
2023/08/11 13:52:32;;;;;;;;;;;22.30;64.90;;;;;;10113691;28;89760;-64
2023/08/11 13:57:34;;;;;;;;;;;22.30;64.90;;;;;;10129719;28;90091;-64
2023/08/11 14:02:36;;;;;;;;;;;22.30;65.00;;;;;;10137615;28;92817;-65
2023/08/11 14:07:39;;;;;;;;;;;22.30;64.90;;;;;;10144632;28;89345;-64
2023/08/11 14:12:41;;;;;;;;;;;22.30;65.00;;;;;;10136899;28;89983;-64
2023/08/11 14:17:43;;;;;;;;;;;22.30;64.90;;;;;;10134319;28;89372;-67
2023/08/11 14:22:46;;;;;;;;;;;22.30;64.90;;;;;;10134007;28;89643;-64
2023/08/11 14:27:50;;;;;;;;;;;22.40;65.00;;;;;;10137647;28;89624;-65
2023/08/11 14:32:52;;;;;;;;;;;22.40;65.00;;;;;;10125889;28;89308;-64
2023/08/11 14:37:54;;;;;;;;;;;22.40;65.00;;;;;;10145272;28;88656;-65
2023/08/11 14:42:57;;;;;;;;;;;22.40;65.00;;;;;;10127400;28;89901;-69
2023/08/11 14:47:59;;;;;;;;;;;22.40;65.10;;;;;;10146274;28;90166;-65
2023/08/11 14:53:01;;;;;;;;;;;22.40;65.10;;;;;;10145048;28;90102;-64
2023/08/11 14:58:04;;;;;;;;;;;22.40;65.10;;;;;;10098592;28;89110;-66
2023/08/11 15:03:07;;;;;;;;;;;22.40;65.30;;;;;;10109248;28;90402;-67
2023/08/11 15:08:10;;;;;;;;;;;22.40;65.30;;;;;;10127173;28;89032;-65
2023/08/11 15:13:16;;;;;;;;;;;22.30;65.30;;;;;;10118990;28;90035;-66
2023/08/11 15:18:19;;;;;;;;;;;22.40;65.50;;;;;;10128573;28;89697;-66
2023/08/11 15:23:21;;;;;;;;;;;22.40;65.50;;;;;;10143126;28;89796;-66
2023/08/11 15:28:23;;;;;;;;;;;22.40;65.50;;;;;;10132480;28;89055;-66
2023/08/11 15:33:25;;;;;;;;;;;22.40;66.80;;;;;;10132610;28;89767;-64
2023/08/11 15:38:31;;;;;;;;;;;22.50;67.90;;;;;;10125582;28;89916;-63
2023/08/11 15:43:35;;;;;;;;;;;22.50;69.10;;;;;;10100639;28;91802;-63
2023/08/11 15:48:38;;;;;;;;;;;22.60;69.80;;;;;;10102232;28;89078;-64
2023/08/11 15:53:40;;;;;;;;;;;22.60;70.10;;;;;;10118689;28;90651;-62
2023/08/11 15:58:42;;;;;;;;;;;22.70;69.60;;;;;;10122340;28;89621;-62
2023/08/11 16:03:46;;;;;;;;;;;22.70;69.40;;;;;;10135722;28;88563;-62
2023/08/11 16:08:49;;;;;;;;;;;22.80;70.10;;;;;;10152271;28;89605;-66
2023/08/11 16:13:51;;;;;;;;;;;22.80;69.90;;;;;;10115516;28;89709;-66
2023/08/11 16:18:53;;;;;;;;;;;22.90;69.90;;;;;;10139110;28;89367;-66
2023/08/11 16:23:55;;;;;;;;;;;22.90;69.90;;;;;;10153180;28;89142;-66
2023/08/11 16:28:58;;;;;;;;;;;22.90;69.70;;;;;;10131421;28;89789;-67
2023/08/11 16:34:00;;;;;;;;;;;22.90;69.70;;;;;;10143296;28;91394;-66
2023/08/11 16:39:05;;;;;;;;;;;22.90;69.70;;;;;;10139259;28;89278;-67
2023/08/11 16:44:09;;;;;;;;;;;22.90;69.70;;;;;;10158904;28;89350;-66
2023/08/11 16:49:12;;;;;;;;;;;22.90;69.60;;;;;;10157312;28;90335;-68
2023/08/11 16:54:16;;;;;;;;;;;22.90;70.00;;;;;;10148878;28;89046;-69
2023/08/11 16:59:21;;;;;;;;;;;22.90;70.10;;;;;;10120494;28;89005;-65
2023/08/11 17:04:23;;;;;;;;;;;22.90;70.80;;;;;;10136377;28;89962;-65
2023/08/11 17:09:25;;;;;;;;;;;22.90;70.30;;;;;;10157423;28;88991;-65
2023/08/11 17:14:28;;;;;;;;;;;22.90;70.20;;;;;;10122940;28;90617;-66
2023/08/11 17:19:31;;;;;;;;;;;22.90;70.20;;;;;;10130088;28;90011;-65
2023/08/11 17:24:34;;;;;;;;;;;22.80;70.10;;;;;;10157889;28;90160;-66
2023/08/11 17:29:36;;;;;;;;;;;22.80;69.80;;;;;;10134354;28;89555;-65
2023/08/11 17:34:38;;;;;;;;;;;22.80;69.90;;;;;;10145289;28;89114;-65
2023/08/11 17:39:58;;;;;;;;;;;22.80;69.80;;;;;;10144981;28;89836;-65
2023/08/11 17:45:00;;;;;;;;;;;22.80;69.80;;;;;;10162326;28;89254;-65
2023/08/11 17:50:03;;;;;;;;;;;22.70;69.70;;;;;;10130100;28;89570;-65
2023/08/11 17:55:05;;;;;;;;;;;22.70;69.70;;;;;;10134342;28;90004;-66
2023/08/11 18:00:08;;;;;;;;;;;22.70;70.60;;;;;;10123992;28;91959;-66
2023/08/11 18:05:11;;;;;;;;;;;22.70;69.90;;;;;;10165523;28;89543;-65
2023/08/11 18:10:13;;;;;;;;;;;22.70;70.00;;;;;;10154729;28;93018;-66
2023/08/11 18:15:17;;;;;;;;;;;22.80;70.10;;;;;;10138613;28;89916;-66
2023/08/11 18:20:23;;;;;;;;;;;22.80;70.20;;;;;;10146002;28;89045;-66
2023/08/11 18:25:26;;;;;;;;;;;22.80;70.30;;;;;;10153113;28;90537;-65
2023/08/11 18:30:29;;;;;;;;;;;22.70;70.20;;;;;;10122223;28;89041;-65
2023/08/11 18:35:32;;;;;;;;;;;22.80;71.10;;;;;;10115058;28;90496;-66
2023/08/11 18:40:34;;;;;;;;;;;22.80;70.30;;;;;;10141696;28;89074;-66
2023/08/11 18:45:36;;;;;;;;;;;22.80;70.40;;;;;;10149634;28;90073;-66
2023/08/11 18:50:38;;;;;;;;;;;22.80;70.50;;;;;;10152381;28;89096;-66
2023/08/11 18:55:40;;;;;;;;;;;22.80;70.70;;;;;;10121947;28;89953;-65
2023/08/11 19:00:42;;;;;;;;;;;22.80;70.70;;;;;;10149462;28;89308;-66
2023/08/11 19:05:44;;;;;;;;;;;22.80;70.50;;;;;;10138666;28;90240;-67
2023/08/11 19:10:47;;;;;;;;;;;22.80;70.50;;;;;;10126418;28;88996;-66
2023/08/11 19:15:50;;;;;;;;;;;22.80;70.50;;;;;;10134549;28;90158;-66
2023/08/11 19:20:53;;;;;;;;;;;22.80;70.50;;;;;;10156434;28;89967;-65
2023/08/11 19:25:56;;;;;;;;;;;22.80;70.40;;;;;;10136754;28;90080;-66
2023/08/11 19:30:58;;;;;;;;;;;22.80;70.30;;;;;;10142385;28;89866;-67
2023/08/11 19:36:00;;;;;;;;;;;22.80;70.30;;;;;;10168374;28;89472;-66
2023/08/11 19:41:03;;;;;;;;;;;22.80;70.40;;;;;;10149485;28;89544;-67
2023/08/11 19:46:06;;;;;;;;;;;22.80;70.30;;;;;;10130044;28;89581;-67
2023/08/11 19:51:09;;;;;;;;;;;22.80;70.50;;;;;;10120062;28;89444;-66
2023/08/11 19:56:11;;;;;;;;;;;22.80;70.50;;;;;;10123044;28;90394;-66
2023/08/11 20:01:13;;;;;;;;;;;22.80;70.50;;;;;;10156260;28;90093;-66
2023/08/11 20:06:15;;;;;;;;;;;22.80;70.50;;;;;;10159509;28;89576;-66
2023/08/11 20:11:17;;;;;;;;;;;22.80;70.50;;;;;;10164706;28;89768;-65
2023/08/11 20:16:20;;;;;;;;;;;22.80;70.50;;;;;;10155165;28;89737;-67
2023/08/11 20:21:22;;;;;;;;;;;22.80;70.50;;;;;;10135024;28;88522;-66
2023/08/11 20:26:24;;;;;;;;;;;22.80;70.40;;;;;;10137197;28;89907;-67
2023/08/11 20:31:39;;;;;;;;;;;;;;;;;;;;;
2023/08/11 20:36:45;;;;;;;;;;;22.80;70.50;;;;;;10120182;28;90067;-66
2023/08/11 20:41:54;;;;;;;;;;;22.80;70.50;;;;;;10144378;28;89649;-67
2023/08/11 20:47:01;;;;;;;;;;;22.80;70.70;;;;;;10146970;28;89470;-65
2023/08/11 20:52:04;;;;;;;;;;;22.80;70.30;;;;;;10157158;28;90712;-65
2023/08/11 20:57:07;;;;;;;;;;;22.90;70.60;;;;;;10140579;28;89484;-66
2023/08/11 21:02:09;;;;;;;;;;;22.90;70.40;;;;;;10128384;28;89052;-67
2023/08/11 21:07:11;;;;;;;;;;;22.90;70.40;;;;;;10129447;28;90116;-66
2023/08/11 21:12:13;;;;;;;;;;;22.90;70.40;;;;;;10147622;28;90131;-67
2023/08/11 21:17:16;;;;;;;;;;;22.80;70.30;;;;;;10151569;28;90324;-66
2023/08/11 21:22:19;;;;;;;;;;;22.80;70.30;;;;;;10102842;28;89019;-65
2023/08/11 21:27:22;;;;;;;;;;;22.80;70.30;;;;;;10154697;28;90793;-67
2023/08/11 21:32:25;;;;;;;;;;;22.80;70.20;;;;;;10124630;28;89701;-66
2023/08/11 21:37:27;;;;;;;;;;;22.80;70.20;;;;;;10129216;28;89773;-66
2023/08/11 21:42:31;;;;;;;;;;;22.80;70.70;;;;;;10146649;28;89525;-65
2023/08/11 21:47:34;;;;;;;;;;;22.80;70.20;;;;;;10139129;28;90257;-65
2023/08/11 21:52:36;;;;;;;;;;;22.80;70.10;;;;;;10130525;28;89552;-66
2023/08/11 21:57:38;;;;;;;;;;;22.80;70.10;;;;;;10172607;28;90062;-64
2023/08/11 22:02:40;;;;;;;;;;;22.80;70.20;;;;;;10154161;28;90545;-67
2023/08/11 22:07:43;;;;;;;;;;;22.80;70.20;;;;;;10177996;28;89620;-66
2023/08/11 22:12:45;;;;;;;;;;;22.70;70.10;;;;;;10137838;28;89482;-66
2023/08/11 22:17:48;;;;;;;;;;;22.80;70.20;;;;;;10143329;28;89418;-66
2023/08/11 22:22:50;;;;;;;;;;;22.80;70.20;;;;;;10128230;28;90236;-66
2023/08/11 22:27:52;;;;;;;;;;;22.80;70.20;;;;;;10134415;28;89773;-66
2023/08/11 22:32:54;;;;;;;;;;;22.80;70.20;;;;;;10139412;28;90243;-65
2023/08/11 22:37:56;;;;;;;;;;;22.70;70.20;;;;;;10145413;28;89721;-67
2023/08/11 22:42:58;;;;;;;;;;;22.70;70.20;;;;;;10147000;28;88834;-66
2023/08/11 22:48:00;;;;;;;;;;;22.70;70.20;;;;;;10155420;28;89552;-66
2023/08/11 22:53:02;;;;;;;;;;;22.70;70.20;;;;;;10151040;28;89152;-66
2023/08/11 22:58:06;;;;;;;;;;;22.70;70.20;;;;;;10151169;28;95168;-67
2023/08/11 23:03:08;;;;;;;;;;;22.70;70.20;;;;;;10133135;28;93076;-66
2023/08/11 23:08:11;;;;;;;;;;;22.70;70.20;;;;;;10153980;28;94293;-67
2023/08/11 23:13:12;;;;;;;;;;;22.70;70.20;;;;;;10137566;28;94522;-67
2023/08/11 23:18:14;;;;;;;;;;;22.70;70.20;;;;;;10149872;28;95721;-67
2023/08/11 23:23:17;;;;;;;;;;;22.70;70.20;;;;;;10135606;28;93099;-67
2023/08/11 23:28:21;;;;;;;;;;;22.70;70.10;;;;;;10155102;28;93749;-66
2023/08/11 23:33:23;;;;;;;;;;;22.70;70.20;;;;;;10134790;28;94913;-64
2023/08/11 23:38:26;;;;;;;;;;;22.60;70.20;;;;;;10129560;28;95088;-67
2023/08/11 23:43:28;;;;;;;;;;;22.70;70.20;;;;;;10147058;28;94699;-66
2023/08/11 23:48:31;;;;;;;;;;;22.70;70.20;;;;;;10146918;28;93462;-66
2023/08/11 23:53:33;;;;;;;;;;;22.70;70.20;;;;;;10148697;28;93159;-66
2023/08/11 23:58:35;;;;;;;;;;;22.60;70.20;;;;;;10138699;28;94337;-66
